sensor_id;sensor_type;location;lat;lon;timestamp;P1;durP1;ratioP1;P2;durP2;ratioP2
40781;SDS011;26493;51.938;7.626;2022-12-20T00:01:12;19.95;;;15.82;;
40781;SDS011;26493;51.938;7.626;2022-12-20T00:03:39;17.98;;;15.85;;
40781;SDS011;26493;51.938;7.626;2022-12-20T00:06:05;20.63;;;15.65;;
40781;SDS011;26493;51.938;7.626;2022-12-20T00:08:31;19.23;;;16.13;;
40781;SDS011;26493;51.938;7.626;2022-12-20T00:10:59;18.25;;;15.98;;
40781;SDS011;26493;51.938;7.626;2022-12-20T00:13:26;19.08;;;15.13;;
40781;SDS011;26493;51.938;7.626;2022-12-20T00:18:34;20.10;;;15.85;;
40781;SDS011;26493;51.938;7.626;2022-12-20T00:21:01;19.08;;;16.00;;
40781;SDS011;26493;51.938;7.626;2022-12-20T00:23:27;18.80;;;15.52;;
40781;SDS011;26493;51.938;7.626;2022-12-20T00:25:59;20.25;;;15.43;;
40781;SDS011;26493;51.938;7.626;2022-12-20T00:28:24;26.77;;;16.33;;
40781;SDS011;26493;51.938;7.626;2022-12-20T00:30:53;18.60;;;15.30;;
40781;SDS011;26493;51.938;7.626;2022-12-20T00:33:20;18.33;;;15.82;;
40781;SDS011;26493;51.938;7.626;2022-12-20T00:35:46;17.08;;;14.90;;
40781;SDS011;26493;51.938;7.626;2022-12-20T00:38:12;18.33;;;15.70;;
40781;SDS011;26493;51.938;7.626;2022-12-20T00:40:38;18.98;;;16.00;;
40781;SDS011;26493;51.938;7.626;2022-12-20T00:43:04;20.10;;;15.50;;
40781;SDS011;26493;51.938;7.626;2022-12-20T00:45:30;20.38;;;15.40;;
40781;SDS011;26493;51.938;7.626;2022-12-20T00:47:56;18.05;;;15.25;;
40781;SDS011;26493;51.938;7.626;2022-12-20T00:50:22;18.27;;;15.30;;
40781;SDS011;26493;51.938;7.626;2022-12-20T00:52:48;17.75;;;15.07;;
40781;SDS011;26493;51.938;7.626;2022-12-20T00:55:14;21.05;;;16.08;;
40781;SDS011;26493;51.938;7.626;2022-12-20T00:57:40;18.55;;;15.30;;
40781;SDS011;26493;51.938;7.626;2022-12-20T01:00:06;17.70;;;14.93;;
40781;SDS011;26493;51.938;7.626;2022-12-20T01:02:32;17.95;;;15.32;;
40781;SDS011;26493;51.938;7.626;2022-12-20T01:04:58;18.98;;;15.13;;
40781;SDS011;26493;51.938;7.626;2022-12-20T01:07:24;19.05;;;15.43;;
40781;SDS011;26493;51.938;7.626;2022-12-20T01:09:50;18.00;;;15.30;;
40781;SDS011;26493;51.938;7.626;2022-12-20T01:12:16;20.08;;;15.60;;
40781;SDS011;26493;51.938;7.626;2022-12-20T01:14:42;18.52;;;15.15;;
40781;SDS011;26493;51.938;7.626;2022-12-20T01:17:08;18.67;;;14.90;;
40781;SDS011;26493;51.938;7.626;2022-12-20T01:19:34;18.00;;;14.93;;
40781;SDS011;26493;51.938;7.626;2022-12-20T01:22:00;19.65;;;15.18;;
40781;SDS011;26493;51.938;7.626;2022-12-20T01:24:26;17.52;;;14.52;;
40781;SDS011;26493;51.938;7.626;2022-12-20T01:26:52;19.25;;;14.77;;
40781;SDS011;26493;51.938;7.626;2022-12-20T01:29:18;20.40;;;14.73;;
40781;SDS011;26493;51.938;7.626;2022-12-20T01:31:44;20.23;;;15.50;;
40781;SDS011;26493;51.938;7.626;2022-12-20T01:34:10;18.02;;;14.85;;
40781;SDS011;26493;51.938;7.626;2022-12-20T01:36:37;17.73;;;14.80;;
40781;SDS011;26493;51.938;7.626;2022-12-20T01:39:21;17.52;;;14.75;;
40781;SDS011;26493;51.938;7.626;2022-12-20T01:41:47;18.15;;;14.70;;
40781;SDS011;26493;51.938;7.626;2022-12-20T01:46:42;17.77;;;15.02;;
40781;SDS011;26493;51.938;7.626;2022-12-20T01:51:38;18.50;;;15.18;;
40781;SDS011;26493;51.938;7.626;2022-12-20T01:54:16;18.90;;;14.80;;
40781;SDS011;26493;51.938;7.626;2022-12-20T01:56:46;17.25;;;14.80;;
40781;SDS011;26493;51.938;7.626;2022-12-20T01:59:13;18.52;;;14.95;;
40781;SDS011;26493;51.938;7.626;2022-12-20T02:01:40;16.83;;;14.38;;
40781;SDS011;26493;51.938;7.626;2022-12-20T02:04:06;19.05;;;14.63;;
40781;SDS011;26493;51.938;7.626;2022-12-20T02:06:32;18.58;;;14.82;;
40781;SDS011;26493;51.938;7.626;2022-12-20T02:08:58;17.70;;;14.48;;
40781;SDS011;26493;51.938;7.626;2022-12-20T02:12:08;17.17;;;14.88;;
40781;SDS011;26493;51.938;7.626;2022-12-20T02:19:34;17.00;;;14.52;;
40781;SDS011;26493;51.938;7.626;2022-12-20T02:27:29;17.95;;;14.60;;
40781;SDS011;26493;51.938;7.626;2022-12-20T02:33:11;17.63;;;14.95;;
40781;SDS011;26493;51.938;7.626;2022-12-20T02:35:22;18.42;;;15.63;;
40781;SDS011;26493;51.938;7.626;2022-12-20T02:37:49;18.20;;;14.88;;
40781;SDS011;26493;51.938;7.626;2022-12-20T02:40:16;18.52;;;15.07;;
40781;SDS011;26493;51.938;7.626;2022-12-20T02:45:10;16.70;;;14.38;;
40781;SDS011;26493;51.938;7.626;2022-12-20T02:47:49;17.35;;;14.55;;
40781;SDS011;26493;51.938;7.626;2022-12-20T02:50:17;17.85;;;15.60;;
40781;SDS011;26493;51.938;7.626;2022-12-20T02:52:45;18.65;;;15.07;;
40781;SDS011;26493;51.938;7.626;2022-12-20T02:55:12;18.45;;;14.90;;
40781;SDS011;26493;51.938;7.626;2022-12-20T02:57:45;17.52;;;15.10;;
40781;SDS011;26493;51.938;7.626;2022-12-20T03:00:15;18.65;;;14.90;;
40781;SDS011;26493;51.938;7.626;2022-12-20T03:02:42;16.88;;;14.88;;
40781;SDS011;26493;51.938;7.626;2022-12-20T03:05:28;17.90;;;14.90;;
40781;SDS011;26493;51.938;7.626;2022-12-20T03:07:54;18.55;;;15.10;;
40781;SDS011;26493;51.938;7.626;2022-12-20T03:10:21;17.75;;;14.65;;
40781;SDS011;26493;51.938;7.626;2022-12-20T03:12:47;17.90;;;14.93;;
40781;SDS011;26493;51.938;7.626;2022-12-20T03:15:13;19.40;;;15.00;;
40781;SDS011;26493;51.938;7.626;2022-12-20T03:17:39;18.35;;;14.73;;
40781;SDS011;26493;51.938;7.626;2022-12-20T03:20:05;17.60;;;14.98;;
40781;SDS011;26493;51.938;7.626;2022-12-20T03:22:32;17.60;;;14.65;;
40781;SDS011;26493;51.938;7.626;2022-12-20T03:24:59;17.80;;;14.77;;
40781;SDS011;26493;51.938;7.626;2022-12-20T03:27:25;17.38;;;14.75;;
40781;SDS011;26493;51.938;7.626;2022-12-20T03:29:54;17.23;;;14.68;;
40781;SDS011;26493;51.938;7.626;2022-12-20T03:32:20;18.02;;;14.63;;
40781;SDS011;26493;51.938;7.626;2022-12-20T03:34:46;17.20;;;14.52;;
40781;SDS011;26493;51.938;7.626;2022-12-20T03:37:13;16.88;;;14.63;;
40781;SDS011;26493;51.938;7.626;2022-12-20T03:39:39;18.10;;;14.85;;
40781;SDS011;26493;51.938;7.626;2022-12-20T03:42:05;17.73;;;14.93;;
40781;SDS011;26493;51.938;7.626;2022-12-20T03:44:31;18.00;;;14.85;;
40781;SDS011;26493;51.938;7.626;2022-12-20T03:46:57;17.63;;;15.10;;
40781;SDS011;26493;51.938;7.626;2022-12-20T03:49:23;18.65;;;15.88;;
40781;SDS011;26493;51.938;7.626;2022-12-20T03:51:49;17.80;;;15.00;;
40781;SDS011;26493;51.938;7.626;2022-12-20T03:54:15;19.13;;;15.73;;
40781;SDS011;26493;51.938;7.626;2022-12-20T03:56:41;17.40;;;15.00;;
40781;SDS011;26493;51.938;7.626;2022-12-20T03:59:07;18.63;;;15.45;;
40781;SDS011;26493;51.938;7.626;2022-12-20T04:01:32;18.38;;;15.40;;
40781;SDS011;26493;51.938;7.626;2022-12-20T04:04:00;19.90;;;16.20;;
40781;SDS011;26493;51.938;7.626;2022-12-20T04:06:27;17.70;;;15.77;;
40781;SDS011;26493;51.938;7.626;2022-12-20T04:08:53;19.20;;;15.43;;
40781;SDS011;26493;51.938;7.626;2022-12-20T04:11:19;18.02;;;15.60;;
40781;SDS011;26493;51.938;7.626;2022-12-20T04:13:49;18.23;;;15.77;;
40781;SDS011;26493;51.938;7.626;2022-12-20T04:16:16;18.15;;;15.60;;
40781;SDS011;26493;51.938;7.626;2022-12-20T04:18:43;17.80;;;15.07;;
40781;SDS011;26493;51.938;7.626;2022-12-20T04:21:09;19.15;;;15.20;;
40781;SDS011;26493;51.938;7.626;2022-12-20T04:23:36;19.52;;;15.27;;
40781;SDS011;26493;51.938;7.626;2022-12-20T04:26:03;18.88;;;15.65;;
40781;SDS011;26493;51.938;7.626;2022-12-20T04:28:29;18.38;;;15.65;;
40781;SDS011;26493;51.938;7.626;2022-12-20T04:30:56;18.85;;;15.80;;
40781;SDS011;26493;51.938;7.626;2022-12-20T04:33:22;18.20;;;15.73;;
40781;SDS011;26493;51.938;7.626;2022-12-20T04:35:48;19.60;;;15.40;;
40781;SDS011;26493;51.938;7.626;2022-12-20T04:38:14;22.65;;;17.05;;
40781;SDS011;26493;51.938;7.626;2022-12-20T04:40:41;18.20;;;15.52;;
40781;SDS011;26493;51.938;7.626;2022-12-20T04:43:07;18.85;;;15.75;;
40781;SDS011;26493;51.938;7.626;2022-12-20T04:45:33;17.45;;;15.40;;
40781;SDS011;26493;51.938;7.626;2022-12-20T04:47:59;18.33;;;15.60;;
40781;SDS011;26493;51.938;7.626;2022-12-20T04:50:25;18.40;;;15.32;;
40781;SDS011;26493;51.938;7.626;2022-12-20T04:52:51;18.23;;;15.45;;
40781;SDS011;26493;51.938;7.626;2022-12-20T04:55:38;19.08;;;16.00;;
40781;SDS011;26493;51.938;7.626;2022-12-20T04:58:05;19.52;;;15.60;;
40781;SDS011;26493;51.938;7.626;2022-12-20T05:00:31;18.02;;;15.70;;
40781;SDS011;26493;51.938;7.626;2022-12-20T05:02:57;18.58;;;15.90;;
40781;SDS011;26493;51.938;7.626;2022-12-20T05:05:23;18.58;;;16.25;;
40781;SDS011;26493;51.938;7.626;2022-12-20T05:07:50;20.13;;;16.15;;
40781;SDS011;26493;51.938;7.626;2022-12-20T05:10:16;20.63;;;16.25;;
40781;SDS011;26493;51.938;7.626;2022-12-20T05:12:42;17.98;;;16.08;;
40781;SDS011;26493;51.938;7.626;2022-12-20T05:15:08;18.48;;;16.30;;
40781;SDS011;26493;51.938;7.626;2022-12-20T05:17:35;19.38;;;16.30;;
40781;SDS011;26493;51.938;7.626;2022-12-20T05:20:01;20.90;;;16.20;;
40781;SDS011;26493;51.938;7.626;2022-12-20T05:22:27;20.25;;;16.92;;
40781;SDS011;26493;51.938;7.626;2022-12-20T05:25:11;19.38;;;16.13;;
40781;SDS011;26493;51.938;7.626;2022-12-20T05:27:56;18.35;;;15.82;;
40781;SDS011;26493;51.938;7.626;2022-12-20T05:30:22;18.85;;;16.70;;
40781;SDS011;26493;51.938;7.626;2022-12-20T05:32:49;17.88;;;15.90;;
40781;SDS011;26493;51.938;7.626;2022-12-20T05:35:15;20.48;;;17.90;;
40781;SDS011;26493;51.938;7.626;2022-12-20T05:37:41;19.42;;;16.33;;
40781;SDS011;26493;51.938;7.626;2022-12-20T05:40:07;19.30;;;16.27;;
40781;SDS011;26493;51.938;7.626;2022-12-20T05:42:34;19.38;;;16.02;;
40781;SDS011;26493;51.938;7.626;2022-12-20T05:45:00;21.15;;;16.45;;
40781;SDS011;26493;51.938;7.626;2022-12-20T05:47:27;19.83;;;16.23;;
40781;SDS011;26493;51.938;7.626;2022-12-20T05:49:57;18.70;;;16.00;;
40781;SDS011;26493;51.938;7.626;2022-12-20T05:52:23;20.48;;;16.58;;
40781;SDS011;26493;51.938;7.626;2022-12-20T05:54:49;18.80;;;16.58;;
40781;SDS011;26493;51.938;7.626;2022-12-20T05:57:15;18.05;;;16.15;;
40781;SDS011;26493;51.938;7.626;2022-12-20T05:59:41;23.35;;;17.70;;
40781;SDS011;26493;51.938;7.626;2022-12-20T06:02:08;18.23;;;16.23;;
40781;SDS011;26493;51.938;7.626;2022-12-20T06:04:34;18.50;;;16.50;;
40781;SDS011;26493;51.938;7.626;2022-12-20T06:07:00;19.98;;;16.88;;
40781;SDS011;26493;51.938;7.626;2022-12-20T06:09:26;18.92;;;16.90;;
40781;SDS011;26493;51.938;7.626;2022-12-20T06:11:54;20.38;;;16.17;;
40781;SDS011;26493;51.938;7.626;2022-12-20T06:14:20;20.05;;;17.20;;
40781;SDS011;26493;51.938;7.626;2022-12-20T06:16:46;20.95;;;18.10;;
40781;SDS011;26493;51.938;7.626;2022-12-20T06:19:12;19.60;;;17.50;;
40781;SDS011;26493;51.938;7.626;2022-12-20T06:21:38;19.40;;;17.38;;
40781;SDS011;26493;51.938;7.626;2022-12-20T06:24:05;20.88;;;17.73;;
40781;SDS011;26493;51.938;7.626;2022-12-20T06:26:31;19.65;;;17.55;;
40781;SDS011;26493;51.938;7.626;2022-12-20T06:29:01;19.67;;;17.63;;
40781;SDS011;26493;51.938;7.626;2022-12-20T06:31:27;19.58;;;17.33;;
40781;SDS011;26493;51.938;7.626;2022-12-20T06:33:53;20.88;;;17.33;;
40781;SDS011;26493;51.938;7.626;2022-12-20T06:36:19;20.38;;;17.70;;
40781;SDS011;26493;51.938;7.626;2022-12-20T06:38:45;19.63;;;17.52;;
40781;SDS011;26493;51.938;7.626;2022-12-20T06:41:11;19.63;;;17.52;;
40781;SDS011;26493;51.938;7.626;2022-12-20T06:43:37;20.38;;;18.17;;
40781;SDS011;26493;51.938;7.626;2022-12-20T06:46:04;20.23;;;17.80;;
40781;SDS011;26493;51.938;7.626;2022-12-20T06:48:30;20.02;;;17.92;;
40781;SDS011;26493;51.938;7.626;2022-12-20T06:50:56;20.02;;;17.77;;
40781;SDS011;26493;51.938;7.626;2022-12-20T06:53:22;22.30;;;18.00;;
40781;SDS011;26493;51.938;7.626;2022-12-20T06:55:49;20.23;;;17.35;;
40781;SDS011;26493;51.938;7.626;2022-12-20T06:58:18;20.55;;;17.58;;
40781;SDS011;26493;51.938;7.626;2022-12-20T07:00:44;20.13;;;18.00;;
40781;SDS011;26493;51.938;7.626;2022-12-20T07:03:10;20.42;;;18.30;;
40781;SDS011;26493;51.938;7.626;2022-12-20T07:05:36;20.77;;;18.58;;
40781;SDS011;26493;51.938;7.626;2022-12-20T07:08:03;21.10;;;18.70;;
40781;SDS011;26493;51.938;7.626;2022-12-20T07:10:30;22.00;;;18.25;;
40781;SDS011;26493;51.938;7.626;2022-12-20T07:12:56;19.73;;;17.60;;
40781;SDS011;26493;51.938;7.626;2022-12-20T07:15:22;21.35;;;18.10;;
40781;SDS011;26493;51.938;7.626;2022-12-20T07:17:48;21.13;;;18.30;;
40781;SDS011;26493;51.938;7.626;2022-12-20T07:20:15;20.70;;;17.65;;
40781;SDS011;26493;51.938;7.626;2022-12-20T07:22:41;19.95;;;17.80;;
40781;SDS011;26493;51.938;7.626;2022-12-20T07:25:08;19.95;;;17.15;;
40781;SDS011;26493;51.938;7.626;2022-12-20T07:27:34;20.83;;;17.67;;
40781;SDS011;26493;51.938;7.626;2022-12-20T07:30:00;20.67;;;18.38;;
40781;SDS011;26493;51.938;7.626;2022-12-20T07:32:26;21.52;;;18.13;;
40781;SDS011;26493;51.938;7.626;2022-12-20T07:34:52;19.55;;;17.38;;
40781;SDS011;26493;51.938;7.626;2022-12-20T07:37:18;19.23;;;17.13;;
40781;SDS011;26493;51.938;7.626;2022-12-20T07:39:44;21.20;;;17.92;;
40781;SDS011;26493;51.938;7.626;2022-12-20T07:42:10;20.75;;;17.63;;
40781;SDS011;26493;51.938;7.626;2022-12-20T07:44:36;22.38;;;17.73;;
40781;SDS011;26493;51.938;7.626;2022-12-20T07:47:02;20.20;;;17.30;;
40781;SDS011;26493;51.938;7.626;2022-12-20T07:49:28;19.25;;;17.08;;
40781;SDS011;26493;51.938;7.626;2022-12-20T07:51:56;20.60;;;17.52;;
40781;SDS011;26493;51.938;7.626;2022-12-20T07:54:25;20.75;;;17.27;;
40781;SDS011;26493;51.938;7.626;2022-12-20T07:59:20;19.30;;;17.08;;
40781;SDS011;26493;51.938;7.626;2022-12-20T08:01:49;20.95;;;17.85;;
40781;SDS011;26493;51.938;7.626;2022-12-20T08:04:19;19.80;;;16.70;;
40781;SDS011;26493;51.938;7.626;2022-12-20T08:06:45;19.92;;;16.83;;
40781;SDS011;26493;51.938;7.626;2022-12-20T08:09:12;19.33;;;17.08;;
40781;SDS011;26493;51.938;7.626;2022-12-20T08:11:40;18.90;;;16.90;;
40781;SDS011;26493;51.938;7.626;2022-12-20T08:14:07;19.10;;;17.00;;
40781;SDS011;26493;51.938;7.626;2022-12-20T08:16:34;21.63;;;16.98;;
40781;SDS011;26493;51.938;7.626;2022-12-20T08:19:00;19.08;;;16.70;;
40781;SDS011;26493;51.938;7.626;2022-12-20T08:21:26;21.52;;;17.23;;
40781;SDS011;26493;51.938;7.626;2022-12-20T08:23:53;19.40;;;16.65;;
40781;SDS011;26493;51.938;7.626;2022-12-20T08:26:19;21.15;;;17.27;;
40781;SDS011;26493;51.938;7.626;2022-12-20T08:28:45;19.67;;;16.50;;
40781;SDS011;26493;51.938;7.626;2022-12-20T08:31:11;18.95;;;16.13;;
40781;SDS011;26493;51.938;7.626;2022-12-20T08:33:37;19.65;;;16.55;;
40781;SDS011;26493;51.938;7.626;2022-12-20T08:36:05;19.67;;;17.50;;
40781;SDS011;26493;51.938;7.626;2022-12-20T08:38:31;21.90;;;16.38;;
40781;SDS011;26493;51.938;7.626;2022-12-20T08:41:01;19.17;;;16.23;;
40781;SDS011;26493;51.938;7.626;2022-12-20T08:43:28;21.92;;;16.58;;
40781;SDS011;26493;51.938;7.626;2022-12-20T08:45:54;20.70;;;16.20;;
40781;SDS011;26493;51.938;7.626;2022-12-20T08:48:21;21.00;;;16.55;;
40781;SDS011;26493;51.938;7.626;2022-12-20T08:50:52;19.77;;;16.00;;
40781;SDS011;26493;51.938;7.626;2022-12-20T08:53:19;19.67;;;16.10;;
40781;SDS011;26493;51.938;7.626;2022-12-20T08:55:45;18.58;;;15.70;;
40781;SDS011;26493;51.938;7.626;2022-12-20T08:58:11;18.63;;;15.98;;
40781;SDS011;26493;51.938;7.626;2022-12-20T09:00:37;19.33;;;16.00;;
40781;SDS011;26493;51.938;7.626;2022-12-20T09:03:03;20.55;;;16.08;;
40781;SDS011;26493;51.938;7.626;2022-12-20T09:05:29;18.48;;;15.90;;
40781;SDS011;26493;51.938;7.626;2022-12-20T09:07:55;23.63;;;17.70;;
40781;SDS011;26493;51.938;7.626;2022-12-20T09:10:21;18.48;;;15.88;;
40781;SDS011;26493;51.938;7.626;2022-12-20T09:12:47;18.23;;;16.33;;
40781;SDS011;26493;51.938;7.626;2022-12-20T09:15:13;22.08;;;16.30;;
40781;SDS011;26493;51.938;7.626;2022-12-20T09:17:39;20.20;;;16.40;;
40781;SDS011;26493;51.938;7.626;2022-12-20T09:20:06;20.90;;;17.45;;
40781;SDS011;26493;51.938;7.626;2022-12-20T09:22:32;19.25;;;16.45;;
40781;SDS011;26493;51.938;7.626;2022-12-20T09:24:58;19.77;;;16.98;;
40781;SDS011;26493;51.938;7.626;2022-12-20T09:27:24;19.83;;;16.67;;
40781;SDS011;26493;51.938;7.626;2022-12-20T09:29:50;18.38;;;16.30;;
40781;SDS011;26493;51.938;7.626;2022-12-20T09:32:16;18.40;;;16.15;;
40781;SDS011;26493;51.938;7.626;2022-12-20T09:34:42;18.55;;;16.10;;
40781;SDS011;26493;51.938;7.626;2022-12-20T09:37:08;19.35;;;16.33;;
40781;SDS011;26493;51.938;7.626;2022-12-20T09:39:34;17.85;;;15.95;;
40781;SDS011;26493;51.938;7.626;2022-12-20T09:42:00;19.27;;;16.58;;
40781;SDS011;26493;51.938;7.626;2022-12-20T09:44:33;17.95;;;16.05;;
40781;SDS011;26493;51.938;7.626;2022-12-20T09:49:31;18.65;;;16.65;;
40781;SDS011;26493;51.938;7.626;2022-12-20T09:59:56;18.23;;;16.30;;
40781;SDS011;26493;51.938;7.626;2022-12-20T10:02:23;20.33;;;15.77;;
40781;SDS011;26493;51.938;7.626;2022-12-20T10:04:49;18.45;;;15.60;;
40781;SDS011;26493;51.938;7.626;2022-12-20T10:12:26;19.38;;;16.05;;
40781;SDS011;26493;51.938;7.626;2022-12-20T10:15:18;17.95;;;15.95;;
40781;SDS011;26493;51.938;7.626;2022-12-20T10:17:45;18.83;;;16.27;;
40781;SDS011;26493;51.938;7.626;2022-12-20T10:22:43;19.92;;;15.57;;
40781;SDS011;26493;51.938;7.626;2022-12-20T10:27:41;18.40;;;15.82;;
40781;SDS011;26493;51.938;7.626;2022-12-20T10:30:17;18.92;;;16.45;;
40781;SDS011;26493;51.938;7.626;2022-12-20T10:32:45;17.77;;;15.70;;
40781;SDS011;26493;51.938;7.626;2022-12-20T10:37:57;17.95;;;15.90;;
40781;SDS011;26493;51.938;7.626;2022-12-20T10:40:31;19.00;;;15.88;;
40781;SDS011;26493;51.938;7.626;2022-12-20T10:42:57;18.17;;;16.00;;
40781;SDS011;26493;51.938;7.626;2022-12-20T10:47:50;18.08;;;15.80;;
40781;SDS011;26493;51.938;7.626;2022-12-20T10:52:42;18.15;;;15.73;;
40781;SDS011;26493;51.938;7.626;2022-12-20T10:58:15;18.42;;;16.42;;
40781;SDS011;26493;51.938;7.626;2022-12-20T11:00:41;19.75;;;16.45;;
40781;SDS011;26493;51.938;7.626;2022-12-20T11:03:12;18.27;;;16.13;;
40781;SDS011;26493;51.938;7.626;2022-12-20T11:05:39;18.80;;;16.15;;
40781;SDS011;26493;51.938;7.626;2022-12-20T11:08:14;18.20;;;16.23;;
40781;SDS011;26493;51.938;7.626;2022-12-20T11:10:40;18.42;;;15.88;;
40781;SDS011;26493;51.938;7.626;2022-12-20T11:13:09;19.55;;;16.40;;
40781;SDS011;26493;51.938;7.626;2022-12-20T11:15:47;19.52;;;16.42;;
40781;SDS011;26493;51.938;7.626;2022-12-20T11:18:14;20.25;;;17.10;;
40781;SDS011;26493;51.938;7.626;2022-12-20T11:23:27;18.15;;;16.15;;
40781;SDS011;26493;51.938;7.626;2022-12-20T11:31:07;17.92;;;16.00;;
40781;SDS011;26493;51.938;7.626;2022-12-20T11:36:05;18.55;;;15.45;;
40781;SDS011;26493;51.938;7.626;2022-12-20T11:51:21;17.60;;;15.70;;
40781;SDS011;26493;51.938;7.626;2022-12-20T11:53:51;17.48;;;15.50;;
40781;SDS011;26493;51.938;7.626;2022-12-20T11:56:19;17.40;;;15.50;;
40781;SDS011;26493;51.938;7.626;2022-12-20T11:58:48;19.77;;;15.98;;
40781;SDS011;26493;51.938;7.626;2022-12-20T12:01:34;19.00;;;16.02;;
40781;SDS011;26493;51.938;7.626;2022-12-20T12:06:38;18.65;;;16.58;;
40781;SDS011;26493;51.938;7.626;2022-12-20T12:09:26;19.63;;;16.42;;
40781;SDS011;26493;51.938;7.626;2022-12-20T12:12:01;17.98;;;15.93;;
40781;SDS011;26493;51.938;7.626;2022-12-20T12:14:46;20.08;;;16.80;;
40781;SDS011;26493;51.938;7.626;2022-12-20T12:17:29;18.70;;;15.82;;
40781;SDS011;26493;51.938;7.626;2022-12-20T12:19:59;18.23;;;15.98;;
40781;SDS011;26493;51.938;7.626;2022-12-20T12:22:30;17.83;;;15.77;;
40781;SDS011;26493;51.938;7.626;2022-12-20T12:24:59;18.08;;;16.02;;
40781;SDS011;26493;51.938;7.626;2022-12-20T12:27:26;18.07;;;15.24;;
40781;SDS011;26493;51.938;7.626;2022-12-20T12:29:53;20.10;;;16.25;;
40781;SDS011;26493;51.938;7.626;2022-12-20T12:32:37;18.10;;;15.63;;
40781;SDS011;26493;51.938;7.626;2022-12-20T12:37:41;18.33;;;15.98;;
40781;SDS011;26493;51.938;7.626;2022-12-20T12:43:04;18.80;;;15.88;;
40781;SDS011;26493;51.938;7.626;2022-12-20T12:45:35;17.70;;;15.80;;
40781;SDS011;26493;51.938;7.626;2022-12-20T12:48:16;19.13;;;16.15;;
40781;SDS011;26493;51.938;7.626;2022-12-20T12:50:45;18.20;;;15.80;;
40781;SDS011;26493;51.938;7.626;2022-12-20T12:53:13;20.08;;;16.02;;
40781;SDS011;26493;51.938;7.626;2022-12-20T12:58:29;19.00;;;16.13;;
40781;SDS011;26493;51.938;7.626;2022-12-20T13:01:07;18.77;;;16.25;;
40781;SDS011;26493;51.938;7.626;2022-12-20T13:03:35;21.73;;;16.27;;
40781;SDS011;26493;51.938;7.626;2022-12-20T13:16:38;19.58;;;17.42;;
40781;SDS011;26493;51.938;7.626;2022-12-20T13:19:12;19.42;;;17.40;;
40781;SDS011;26493;51.938;7.626;2022-12-20T13:21:40;20.38;;;17.23;;
40781;SDS011;26493;51.938;7.626;2022-12-20T13:26:52;19.27;;;17.10;;
40781;SDS011;26493;51.938;7.626;2022-12-20T13:29:22;21.42;;;17.65;;
40781;SDS011;26493;51.938;7.626;2022-12-20T13:31:49;18.77;;;16.77;;
40781;SDS011;26493;51.938;7.626;2022-12-20T13:34:37;19.42;;;17.27;;
40781;SDS011;26493;51.938;7.626;2022-12-20T13:37:01;19.27;;;17.17;;
40781;SDS011;26493;51.938;7.626;2022-12-20T13:39:29;18.88;;;16.88;;
40781;SDS011;26493;51.938;7.626;2022-12-20T13:42:14;19.45;;;17.15;;
40781;SDS011;26493;51.938;7.626;2022-12-20T13:44:42;19.85;;;17.75;;
40781;SDS011;26493;51.938;7.626;2022-12-20T13:49:47;21.35;;;17.40;;
40781;SDS011;26493;51.938;7.626;2022-12-20T13:52:37;19.08;;;16.55;;
40781;SDS011;26493;51.938;7.626;2022-12-20T13:55:02;19.55;;;16.90;;
40781;SDS011;26493;51.938;7.626;2022-12-20T13:57:41;19.40;;;17.30;;
40781;SDS011;26493;51.938;7.626;2022-12-20T14:00:15;18.85;;;16.70;;
40781;SDS011;26493;51.938;7.626;2022-12-20T14:02:42;22.17;;;17.88;;
40781;SDS011;26493;51.938;7.626;2022-12-20T14:05:24;21.23;;;17.08;;
40781;SDS011;26493;51.938;7.626;2022-12-20T14:10:23;20.90;;;16.75;;
40781;SDS011;26493;51.938;7.626;2022-12-20T14:12:50;18.27;;;16.05;;
40781;SDS011;26493;51.938;7.626;2022-12-20T14:15:24;21.17;;;16.52;;
40781;SDS011;26493;51.938;7.626;2022-12-20T14:17:51;20.85;;;16.45;;
40781;SDS011;26493;51.938;7.626;2022-12-20T14:20:20;18.88;;;16.75;;
40781;SDS011;26493;51.938;7.626;2022-12-20T14:25:16;20.30;;;17.10;;
40781;SDS011;26493;51.938;7.626;2022-12-20T14:27:45;19.40;;;16.75;;
40781;SDS011;26493;51.938;7.626;2022-12-20T14:30:25;20.85;;;16.90;;
40781;SDS011;26493;51.938;7.626;2022-12-20T14:32:51;19.48;;;17.30;;
40781;SDS011;26493;51.938;7.626;2022-12-20T14:35:19;20.02;;;17.80;;
40781;SDS011;26493;51.938;7.626;2022-12-20T14:37:59;20.15;;;17.80;;
40781;SDS011;26493;51.938;7.626;2022-12-20T14:40:28;20.42;;;18.33;;
40781;SDS011;26493;51.938;7.626;2022-12-20T14:42:54;22.10;;;18.95;;
40781;SDS011;26493;51.938;7.626;2022-12-20T14:45:22;23.98;;;20.50;;
40781;SDS011;26493;51.938;7.626;2022-12-20T14:50:24;23.60;;;21.30;;
40781;SDS011;26493;51.938;7.626;2022-12-20T14:52:51;24.40;;;22.05;;
40781;SDS011;26493;51.938;7.626;2022-12-20T14:55:23;29.33;;;26.63;;
40781;SDS011;26493;51.938;7.626;2022-12-20T14:57:51;33.33;;;30.15;;
40781;SDS011;26493;51.938;7.626;2022-12-20T15:08:08;41.85;;;38.35;;
40781;SDS011;26493;51.938;7.626;2022-12-20T15:10:34;45.17;;;40.97;;
40781;SDS011;26493;51.938;7.626;2022-12-20T15:13:00;47.55;;;43.75;;
40781;SDS011;26493;51.938;7.626;2022-12-20T15:15:26;46.75;;;42.95;;
40781;SDS011;26493;51.938;7.626;2022-12-20T15:17:52;48.10;;;43.80;;
40781;SDS011;26493;51.938;7.626;2022-12-20T15:20:18;51.28;;;46.72;;
40781;SDS011;26493;51.938;7.626;2022-12-20T15:22:45;50.67;;;46.53;;
40781;SDS011;26493;51.938;7.626;2022-12-20T15:25:14;50.70;;;46.50;;
40781;SDS011;26493;51.938;7.626;2022-12-20T15:27:41;51.80;;;47.67;;
40781;SDS011;26493;51.938;7.626;2022-12-20T15:30:10;50.45;;;46.22;;
40781;SDS011;26493;51.938;7.626;2022-12-20T15:32:40;50.83;;;46.75;;
40781;SDS011;26493;51.938;7.626;2022-12-20T15:35:12;51.30;;;47.20;;
40781;SDS011;26493;51.938;7.626;2022-12-20T15:37:39;49.67;;;45.67;;
40781;SDS011;26493;51.938;7.626;2022-12-20T15:40:06;50.67;;;46.45;;
40781;SDS011;26493;51.938;7.626;2022-12-20T15:42:32;49.90;;;45.83;;
40781;SDS011;26493;51.938;7.626;2022-12-20T15:44:59;49.17;;;45.17;;
40781;SDS011;26493;51.938;7.626;2022-12-20T15:47:26;49.42;;;45.33;;
40781;SDS011;26493;51.938;7.626;2022-12-20T15:49:52;50.72;;;46.53;;
40781;SDS011;26493;51.938;7.626;2022-12-20T15:52:18;50.08;;;45.85;;
40781;SDS011;26493;51.938;7.626;2022-12-20T15:54:45;49.22;;;45.10;;
40781;SDS011;26493;51.938;7.626;2022-12-20T15:57:12;49.00;;;44.60;;
40781;SDS011;26493;51.938;7.626;2022-12-20T15:59:39;48.17;;;43.85;;
40781;SDS011;26493;51.938;7.626;2022-12-20T16:02:16;47.42;;;43.53;;
40781;SDS011;26493;51.938;7.626;2022-12-20T16:04:43;50.00;;;45.53;;
40781;SDS011;26493;51.938;7.626;2022-12-20T16:07:09;48.03;;;43.95;;
40781;SDS011;26493;51.938;7.626;2022-12-20T16:09:36;49.38;;;45.13;;
40781;SDS011;26493;51.938;7.626;2022-12-20T16:12:02;48.75;;;44.65;;
40781;SDS011;26493;51.938;7.626;2022-12-20T16:14:29;49.53;;;45.08;;
40781;SDS011;26493;51.938;7.626;2022-12-20T16:16:55;48.65;;;44.33;;
40781;SDS011;26493;51.938;7.626;2022-12-20T16:19:21;49.10;;;45.10;;
40781;SDS011;26493;51.938;7.626;2022-12-20T16:21:48;48.92;;;44.75;;
40781;SDS011;26493;51.938;7.626;2022-12-20T16:24:15;49.25;;;44.85;;
40781;SDS011;26493;51.938;7.626;2022-12-20T16:26:41;48.28;;;43.95;;
40781;SDS011;26493;51.938;7.626;2022-12-20T16:29:07;50.38;;;45.72;;